Time;durP1;ratioP1;P1;durP2;ratioP2;P2;SDS_P1;SDS_P2;PMS_P1;PMS_P2;Temp;Humidity;BMP_temperature;BMP_pressure;BME280_temperature;BME280_humidity;BME280_pressure;Samples;Min_cycle;Max_cycle;Signal;HPM_P1;HPM_P2
2022/11/12 00:00:27;;;;;;;7.72;5.60;;;;;;;22.88;46.05;96257.94;4945491;28;20236;-62
2022/11/12 00:02:53;;;;;;;7.72;5.75;;;;;;;22.85;45.79;96246.47;4920267;28;20037;-58
2022/11/12 00:05:18;;;;;;;7.30;5.80;;;;;;;22.82;46.21;96263.75;4944460;28;22139;-61
2022/11/12 00:07:44;;;;;;;6.60;5.75;;;;;;;22.56;45.91;96203.03;4944890;28;20057;-62
2022/11/12 00:10:09;;;;;;;6.55;5.40;;;;;;;22.84;45.72;96261.31;4922100;28;20164;-61
2022/11/12 00:12:35;;;;;;;7.18;5.72;;;;;;;22.81;45.76;96235.78;4921657;28;20124;-61
2022/11/12 00:15:00;;;;;;;7.35;5.78;;;;;;;22.69;45.80;96222.50;4944929;28;20068;-60
2022/11/12 00:17:26;;;;;;;7.03;5.80;;;;;;;22.03;46.06;96134.47;4944818;28;20123;-59
2022/11/12 00:19:52;;;;;;;7.45;5.97;;;;;;;22.85;46.11;96241.78;4945895;28;20085;-63
2022/11/12 00:22:18;;;;;;;7.55;5.70;;;;;;;22.83;46.06;96238.03;4944223;28;20379;-61
2022/11/12 00:24:43;;;;;;;7.13;5.70;;;;;;;21.72;46.00;96087.31;4944203;28;20041;-60
2022/11/12 00:27:09;;;;;;;7.78;6.10;;;;;;;22.59;46.24;96212.97;4944406;28;20282;-60
2022/11/12 00:29:34;;;;;;;7.20;5.65;;;;;;;22.81;45.85;96252.13;4934005;28;21850;-62
2022/11/12 00:32:00;;;;;;;7.53;5.95;;;;;;;22.83;46.32;96248.94;4943427;28;20084;-62
2022/11/12 00:34:25;;;;;;;8.43;6.38;;;;;;;22.87;46.25;96254.91;4919672;28;20140;-61
2022/11/12 00:36:51;;;;;;;7.60;5.65;;;;;;;22.84;46.14;96250.41;4942754;28;20053;-61
2022/11/12 00:39:16;;;;;;;6.82;5.45;;;;;;;22.80;45.82;96256.06;4920640;28;20521;-60
2022/11/12 00:41:41;;;;;;;7.38;6.13;;;;;;;22.83;45.77;96254.38;4919040;28;20072;-61
2022/11/12 00:44:07;;;;;;;6.95;5.25;;;;;;;22.28;45.72;96177.38;4944187;28;20080;-61
2022/11/12 00:46:32;;;;;;;6.85;5.50;;;;;;;22.42;46.09;96192.94;4943477;28;21381;-61
2022/11/12 00:48:58;;;;;;;7.80;5.57;;;;;;;22.77;45.86;96256.28;4944051;28;20421;-62
2022/11/12 00:51:23;;;;;;;7.45;5.97;;;;;;;22.71;46.29;96252.72;4935366;28;20419;-61
2022/11/12 00:53:49;;;;;;;7.95;6.18;;;;;;;21.74;46.07;96094.97;4944856;28;20520;-59
2022/11/12 00:56:14;;;;;;;6.57;5.32;;;;;;;22.77;46.26;96245.38;4945617;28;22302;-60
2022/11/12 00:58:40;;;;;;;6.20;5.32;;;;;;;22.65;46.23;96227.41;4932615;28;20121;-62
2022/11/12 01:01:07;;;;;;;8.50;6.72;;;;;;;22.59;46.19;96216.44;4919152;28;20521;-61
2022/11/12 01:03:33;;;;;;;6.97;5.75;;;;;;;22.63;46.10;96235.28;4921519;28;20690;-63
2022/11/12 01:06:08;;;;;;;6.85;5.63;;;;;;;22.74;45.98;96219.09;4948007;28;20041;-60
2022/11/12 01:08:34;;;;;;;7.38;6.10;;;;;;;22.59;46.11;96196.63;4940642;28;20049;-62
2022/11/12 01:11:09;;;;;;;7.25;5.85;;;;;;;21.74;46.03;96073.22;4940515;28;20334;-59
2022/11/12 01:13:35;;;;;;;8.70;6.47;;;;;;;22.60;45.73;96214.44;4950877;28;20057;-62
2022/11/12 01:16:11;;;;;;;7.10;5.97;;;;;;;22.73;45.93;96223.03;4946465;28;20054;-59
2022/11/12 01:18:37;;;;;;;7.20;5.40;;;;;;;22.76;46.00;96233.00;4947746;28;20043;-62
2022/11/12 01:21:03;;;;;;;7.70;5.78;;;;;;;22.53;45.90;96193.09;4924862;28;20041;-61
2022/11/12 01:23:31;;;;;;;7.43;5.88;;;;;;;22.11;46.17;96135.56;4946986;28;20038;-61
2022/11/12 01:25:56;;;;;;;7.32;5.85;;;;;;;21.91;45.83;96109.56;4938074;28;20064;-62
2022/11/12 01:28:22;;;;;;;8.02;5.85;;;;;;;22.67;46.10;96222.22;4948013;28;20041;-61
2022/11/12 01:30:47;;;;;;;7.05;5.85;;;;;;;22.37;46.07;96180.00;4947801;28;20614;-61
2022/11/12 01:33:13;;;;;;;8.00;6.10;;;;;;;22.53;46.29;96203.97;4946898;28;20220;-62
2022/11/12 01:35:38;;;;;;;7.57;6.43;;;;;;;22.70;46.25;96218.56;4927842;28;20052;-63
2022/11/12 01:38:04;;;;;;;7.03;5.60;;;;;;;22.69;46.41;96222.50;4947837;28;21376;-60
2022/11/12 01:40:30;;;;;;;8.63;6.30;;;;;;;22.67;46.21;96219.50;4906778;28;20046;-59
2022/11/12 01:42:56;;;;;;;8.40;6.63;;;;;;;22.66;46.30;96212.53;4934756;28;20051;-58
2022/11/12 01:45:21;;;;;;;7.10;5.90;;;;;;;22.60;46.07;96209.00;4896710;28;20184;-60
2022/11/12 01:47:47;;;;;;;8.20;6.20;;;;;;;22.62;45.93;96201.13;4905603;28;21669;-59
2022/11/12 01:50:23;;;;;;;6.90;5.57;;;;;;;22.54;46.49;96194.56;4912999;28;20046;-60
2022/11/12 01:53:00;;;;;;;7.35;5.70;;;;;;;22.61;45.66;96213.22;4904025;28;20587;-60
2022/11/12 01:55:28;;;;;;;7.50;6.05;;;;;;;21.64;45.95;96047.38;4908634;28;20042;-57
2022/11/12 01:58:13;;;;;;;7.20;5.63;;;;;;;22.64;46.13;96204.13;4908238;28;20058;-59
2022/11/12 02:00:39;;;;;;;7.93;6.40;;;;;;;22.64;46.20;96209.56;4903666;28;20047;-59
2022/11/12 02:03:07;;;;;;;7.43;6.20;;;;;;;22.60;46.35;96192.66;4903463;28;20478;-61
2022/11/12 02:05:32;;;;;;;7.25;6.22;;;;;;;22.63;46.35;96197.16;4871523;28;21289;-59
2022/11/12 02:07:58;;;;;;;8.27;6.15;;;;;;;21.93;46.12;96141.25;4903131;28;20554;-60
2022/11/12 02:10:23;;;;;;;8.88;6.45;;;;;;;22.51;46.04;96187.34;4919825;28;20085;-60
2022/11/12 02:15:33;;;;;;;7.20;5.82;;;;;;;22.16;46.24;96137.63;4907040;28;21749;-59
2022/11/12 02:17:58;;;;;;;7.93;6.28;;;;;;;22.60;46.08;96209.00;4908340;28;20734;-58
2022/11/12 02:20:24;;;;;;;7.70;6.10;;;;;;;22.58;46.34;96211.47;4898128;28;20082;-62
2022/11/12 02:22:49;;;;;;;7.43;5.88;;;;;;;22.62;46.34;96212.00;4902324;28;20136;-60
2022/11/12 02:25:17;;;;;;;7.43;5.85;;;;;;;22.59;46.29;96216.44;4910287;28;22244;-60
2022/11/12 02:27:43;;;;;;;7.82;6.10;;;;;;;22.60;46.17;96211.72;4907911;28;20106;-58
2022/11/12 02:30:09;;;;;;;7.28;5.65;;;;;;;22.40;46.13;96189.19;4904602;28;20057;-60
2022/11/12 02:32:34;;;;;;;7.70;6.15;;;;;;;22.55;46.12;96213.16;4900950;28;20117;-62
2022/11/12 02:35:00;;;;;;;8.32;5.85;;;;;;;22.57;46.22;96209.94;4908523;28;20181;-60
2022/11/12 02:37:25;;;;;;;7.55;6.25;;;;;;;22.58;46.02;96211.47;4899158;28;20053;-61
2022/11/12 02:39:50;;;;;;;8.50;6.32;;;;;;;22.55;46.01;96210.44;4918009;28;20374;-58
2022/11/12 02:42:16;;;;;;;7.05;5.90;;;;;;;21.41;46.09;96040.09;4912399;28;21030;-57
2022/11/12 02:44:41;;;;;;;7.72;6.15;;;;;;;22.55;46.57;96206.97;4947861;28;20061;-60
2022/11/12 02:47:07;;;;;;;7.63;6.10;;;;;;;22.53;46.21;96199.28;4947361;28;20968;-59
2022/11/12 02:49:32;;;;;;;7.55;5.82;;;;;;;22.53;46.63;96198.53;4938408;28;20054;-58
2022/11/12 02:51:58;;;;;;;6.80;5.97;;;;;;;22.41;45.94;96186.72;4945439;28;20112;-59
2022/11/12 02:54:23;;;;;;;8.20;6.18;;;;;;;22.55;46.55;96206.97;4947368;28;21979;-58
2022/11/12 02:56:49;;;;;;;7.82;6.13;;;;;;;22.53;46.19;96225.75;4940239;28;20068;-60
2022/11/12 02:59:14;;;;;;;7.60;5.80;;;;;;;21.42;46.41;96029.97;4939872;28;21261;-58
2022/11/12 03:01:40;;;;;;;8.43;6.13;;;;;;;22.47;46.03;96190.28;4943848;28;20468;-61
2022/11/12 03:04:05;;;;;;;7.35;6.07;;;;;;;22.49;46.42;96187.09;4953350;28;20068;-59
2022/11/12 03:06:31;;;;;;;8.30;6.40;;;;;;;22.54;46.32;96200.00;4951082;28;20553;-58
2022/11/12 03:08:56;;;;;;;6.63;5.53;;;;;;;22.40;46.57;96178.31;4950199;28;20546;-60
2022/11/12 03:11:21;;;;;;;7.55;6.47;;;;;;;22.52;46.05;96191.56;4952266;28;20801;-59
2022/11/12 03:13:47;;;;;;;7.90;6.30;;;;;;;20.53;46.22;95906.84;4953360;28;20693;-60
2022/11/12 03:16:12;;;;;;;7.40;6.32;;;;;;;22.31;46.01;96160.13;4947030;28;20812;-58
2022/11/12 03:18:38;;;;;;;6.97;5.72;;;;;;;21.58;46.26;96062.84;4938925;28;20072;-60
2022/11/12 03:21:03;;;;;;;7.55;6.00;;;;;;;22.33;46.32;96173.25;4951106;28;20042;-59
2022/11/12 03:23:29;;;;;;;7.53;5.93;;;;;;;22.29;46.43;96168.00;4944364;28;20144;-59
2022/11/12 03:25:54;;;;;;;7.05;5.75;;;;;;;22.48;46.56;96207.34;4948868;28;20910;-58
2022/11/12 03:28:20;;;;;;;6.93;6.00;;;;;;;22.45;46.44;96202.84;4950869;28;20056;-60
2022/11/12 03:30:45;;;;;;;6.80;5.63;;;;;;;22.46;46.27;96204.38;4947475;28;20053;-59
2022/11/12 03:33:12;;;;;;;6.95;5.68;;;;;;;22.45;46.33;96213.75;4925260;28;20069;-59
2022/11/12 03:35:37;;;;;;;8.27;6.40;;;;;;;22.45;46.18;96202.84;4920017;28;20048;-59
2022/11/12 03:38:03;;;;;;;7.28;5.93;;;;;;;22.35;46.49;96193.34;4945399;28;20176;-59
2022/11/12 03:40:29;;;;;;;7.50;5.85;;;;;;;22.46;46.59;96204.38;4918851;28;20475;-59
2022/11/12 03:42:54;;;;;;;7.60;5.97;;;;;;;22.45;46.23;96208.31;4945290;28;20056;-60
2022/11/12 03:45:20;;;;;;;7.40;5.85;;;;;;;22.42;46.51;96220.16;4922090;28;21713;-60
2022/11/12 03:47:47;;;;;;;6.57;5.88;;;;;;;22.42;46.22;96201.09;4908557;28;20049;-59
2022/11/12 03:50:13;;;;;;;7.35;5.78;;;;;;;22.41;45.89;96202.31;4946543;28;20355;-59
2022/11/12 03:52:46;;;;;;;6.95;5.95;;;;;;;22.42;46.49;96214.72;4946068;28;20154;-57
2022/11/12 03:55:13;;;;;;;7.53;5.78;;;;;;;22.41;46.45;96202.31;4938206;28;20050;-58
2022/11/12 03:57:38;;;;;;;7.57;6.03;;;;;;;22.43;46.34;96210.75;4945427;28;20794;-60
2022/11/12 04:00:05;;;;;;;7.00;5.53;;;;;;;22.44;46.09;96209.53;4937924;28;20076;-60
2022/11/12 04:02:30;;;;;;;7.70;6.07;;;;;;;22.43;46.29;96205.31;4944717;28;21387;-60
2022/11/12 04:10:24;;;;;;;7.50;5.68;;;;;;;22.40;46.15;96205.53;4944135;28;20056;-60
2022/11/12 04:15:34;;;;;;;7.45;5.75;;;;;;;22.39;46.36;96198.56;4943897;28;20041;-59
2022/11/12 04:23:27;;;;;;;7.07;5.97;;;;;;;21.92;46.40;96132.81;4945065;28;20056;-58
2022/11/12 04:28:37;;;;;;;7.55;6.10;;;;;;;22.36;46.31;96188.63;4939195;28;20215;-60
2022/11/12 04:31:02;;;;;;;7.07;5.45;;;;;;;22.35;46.43;96193.34;4942785;28;20069;-59
2022/11/12 04:33:28;;;;;;;7.10;5.68;;;;;;;22.06;46.57;96149.84;4943544;28;20441;-60
2022/11/12 04:35:53;;;;;;;7.47;6.03;;;;;;;22.34;46.33;96194.53;4935922;28;22179;-60
2022/11/12 04:38:19;;;;;;;7.07;5.78;;;;;;;22.32;46.37;96188.84;4944241;28;21746;-58
2022/11/12 04:46:12;;;;;;;6.20;5.47;;;;;;;22.25;46.67;96183.78;4925362;28;20767;-61
2022/11/12 04:48:37;;;;;;;7.80;5.80;;;;;;;22.27;46.71;96186.78;4939208;28;20042;-59
2022/11/12 04:52:03;;;;;;;7.10;6.15;;;;;;;22.29;46.26;96189.78;4948240;28;20782;-59
2022/11/12 04:53:52;;;;;;;6.93;5.07;;;;;;;22.26;46.47;96201.63;4946546;28;21791;-59
2022/11/12 04:56:17;;;;;;;6.47;5.38;;;;;;;22.23;46.12;96197.13;4941542;28;20105;-60
2022/11/12 04:58:43;;;;;;;7.20;5.72;;;;;;;22.27;46.68;96203.13;4923380;28;20602;-60
2022/11/12 05:01:08;;;;;;;5.82;4.93;;;;;;;22.25;46.19;96221.88;4926441;28;20528;-60
2022/11/12 05:03:33;;;;;;;6.15;5.22;;;;;;;22.02;46.82;96175.75;4947536;28;20068;-59
2022/11/12 05:06:03;;;;;;;7.07;5.70;;;;;;;22.04;46.38;96181.47;4922776;28;20099;-59
2022/11/12 05:08:28;;;;;;;7.10;5.38;;;;;;;22.23;46.43;96213.44;4939981;28;20138;-60
2022/11/12 05:10:53;;;;;;;6.38;5.32;;;;;;;22.22;46.67;96211.94;4947966;28;20080;-59
2022/11/12 05:13:19;;;;;;;7.32;5.82;;;;;;;22.21;46.78;96218.63;4939042;28;20079;-60
2022/11/12 05:15:44;;;;;;;5.65;4.93;;;;;;;22.06;46.68;96196.09;4948567;28;20069;-59
2022/11/12 05:18:10;;;;;;;6.43;5.25;;;;;;;22.22;46.53;96225.53;4947886;28;20770;-59
2022/11/12 05:20:35;;;;;;;6.90;5.45;;;;;;;22.18;46.67;96227.69;4921753;28;20049;-58
2022/11/12 05:23:01;;;;;;;6.05;5.13;;;;;;;22.14;46.62;96227.13;4947685;28;20119;-58
2022/11/12 05:25:26;;;;;;;6.07;5.03;;;;;;;22.21;46.74;96228.72;4947831;28;20576;-59
2022/11/12 05:27:52;;;;;;;6.55;5.32;;;;;;;21.54;46.40;96131.00;4947222;28;20583;-59
2022/11/12 05:30:17;;;;;;;6.03;4.93;;;;;;;22.09;46.79;96208.00;4949016;28;21345;-59
2022/11/12 05:32:42;;;;;;;6.15;5.00;;;;;;;22.07;46.60;96218.59;4948489;28;20045;-59
2022/11/12 05:35:08;;;;;;;7.53;6.00;;;;;;;22.20;46.52;96230.69;4948128;28;20076;-60
2022/11/12 05:37:33;;;;;;;5.70;4.88;;;;;;;22.20;46.84;96238.09;4947307;28;20142;-59
2022/11/12 05:39:59;;;;;;;7.20;5.82;;;;;;;22.20;46.67;96233.41;4922915;28;20099;-60
2022/11/12 05:42:24;;;;;;;6.68;5.00;;;;;;;22.15;46.54;96227.88;4948032;28;20167;-60
2022/11/12 05:44:50;;;;;;;6.28;5.28;;;;;;;22.20;46.89;96230.69;4948805;28;21737;-60
2022/11/12 05:47:15;;;;;;;5.95;4.88;;;;;;;22.21;46.53;96248.53;4949388;28;20050;-58
2022/11/12 05:49:41;;;;;;;6.43;4.97;;;;;;;22.22;46.38;96239.13;4943680;28;20056;-59
2022/11/12 05:52:06;;;;;;;5.88;4.72;;;;;;;22.16;46.47;96224.69;4947299;28;20183;-60
2022/11/12 05:54:31;;;;;;;5.95;4.75;;;;;;;22.28;46.41;96237.25;4926256;28;20127;-60
2022/11/12 05:56:57;;;;;;;5.93;4.82;;;;;;;20.39;46.09;95942.88;4941156;28;20680;-60
2022/11/12 05:59:23;;;;;;;7.10;5.43;;;;;;;22.33;46.20;96244.78;4940775;28;20068;-57
2022/11/12 06:01:48;;;;;;;6.50;4.88;;;;;;;22.27;46.78;96230.34;4947229;28;20698;-61
2022/11/12 06:04:14;;;;;;;5.70;4.70;;;;;;;22.36;46.70;96249.28;4942503;28;20705;-60
2022/11/12 06:06:40;;;;;;;6.78;4.80;;;;;;;21.42;46.65;96109.53;4922137;28;20072;-61
2022/11/12 06:09:06;;;;;;;5.68;4.75;;;;;;;22.34;46.49;96251.69;5018030;23;20053;-61
2022/11/12 06:11:31;;;;;;;5.80;4.70;;;;;;;22.38;46.53;96257.69;4993680;28;20054;-61
2022/11/12 06:13:57;;;;;;;6.50;5.43;;;;;;;21.01;46.76;96045.38;4977403;28;20108;-61
2022/11/12 06:16:22;;;;;;;5.95;4.90;;;;;;;21.73;46.60;96164.16;4979185;28;20057;-60
2022/11/12 06:18:48;;;;;;;6.30;4.85;;;;;;;22.39;46.81;96259.22;4996536;28;20077;-62
2022/11/12 06:21:23;;;;;;;5.53;4.88;;;;;;;22.38;46.48;96260.44;4999399;28;20042;-61
2022/11/12 06:23:53;;;;;;;5.55;4.70;;;;;;;22.42;46.81;96258.28;4998543;28;20485;-61
2022/11/12 06:26:18;;;;;;;6.07;4.95;;;;;;;22.40;46.67;96266.13;5021292;23;20407;-64
2022/11/12 06:28:44;;;;;;;6.05;5.00;;;;;;;20.57;46.59;95977.97;5000611;28;20041;-61
2022/11/12 06:31:09;;;;;;;7.07;4.93;;;;;;;22.41;46.72;96261.47;5010839;28;20062;-62
2022/11/12 06:33:35;;;;;;;5.53;4.30;;;;;;;22.41;46.56;96251.31;5013457;28;20737;-62
2022/11/12 06:36:01;;;;;;;6.43;4.85;;;;;;;22.41;46.56;96245.88;5016122;28;20600;-63
2022/11/12 06:38:34;;;;;;;5.40;4.60;;;;;;;21.43;46.48;96092.75;5018286;28;20045;-62
2022/11/12 06:40:59;;;;;;;6.40;4.35;;;;;;;22.43;46.68;96254.31;5000595;28;20057;-63
2022/11/12 06:43:26;;;;;;;5.25;4.53;;;;;;;22.41;46.62;96259.47;5019095;28;20045;-64
2022/11/12 06:45:52;;;;;;;4.93;3.90;;;;;;;22.42;46.39;96258.28;5006273;28;20127;-62
2022/11/12 06:48:17;;;;;;;5.57;4.65;;;;;;;22.43;46.28;96281.53;5017712;28;20037;-63
2022/11/12 06:50:43;;;;;;;5.70;4.43;;;;;;;22.39;46.63;96264.66;5015888;28;20636;-62
2022/11/12 06:53:08;;;;;;;5.20;4.13;;;;;;;22.43;46.37;96281.53;5017930;28;20041;-63
2022/11/12 06:55:33;;;;;;;4.97;4.20;;;;;;;22.44;46.59;96266.69;4997818;28;20037;-60
2022/11/12 06:57:59;;;;;;;5.68;4.28;;;;;;;22.44;46.29;96266.69;5007692;28;20053;-63
2022/11/12 07:00:24;;;;;;;5.50;4.60;;;;;;;22.44;46.43;96266.69;4996287;28;20076;-65
2022/11/12 07:02:50;;;;;;;5.13;4.30;;;;;;;22.45;46.35;96262.72;5016558;28;20580;-63
2022/11/12 07:05:15;;;;;;;6.28;4.28;;;;;;;22.45;46.28;96260.00;5014421;28;20041;-60
2022/11/12 07:07:41;;;;;;;5.35;4.07;;;;;;;21.21;46.06;96069.16;5016805;28;20531;-59
2022/11/12 07:10:07;;;;;;;5.72;4.53;;;;;;;22.47;46.44;96265.75;5016493;28;20124;-63
2022/11/12 07:12:32;;;;;;;5.45;4.47;;;;;;;22.47;46.19;96263.03;5016175;28;20673;-61
2022/11/12 07:14:58;;;;;;;5.40;4.35;;;;;;;22.44;46.23;96251.09;5017059;28;20641;-60
2022/11/12 07:17:23;;;;;;;5.15;4.15;;;;;;;22.48;46.46;96250.91;5013323;28;20099;-62
2022/11/12 07:19:49;;;;;;;5.55;4.57;;;;;;;22.47;46.43;96254.88;5014466;28;20076;-62
2022/11/12 07:22:14;;;;;;;5.38;4.10;;;;;;;22.28;46.31;96250.88;5015287;28;20045;-61
2022/11/12 07:24:39;;;;;;;5.38;4.18;;;;;;;22.50;46.43;96253.91;4998525;28;20474;-61
2022/11/12 07:27:05;;;;;;;4.55;3.60;;;;;;;22.24;46.17;96208.75;4992409;28;20038;-62
2022/11/12 07:29:30;;;;;;;5.38;4.38;;;;;;;22.46;45.89;96253.34;4994422;28;20048;-62
2022/11/12 07:31:56;;;;;;;5.88;4.20;;;;;;;22.27;45.95;96219.44;4996143;28;20049;-59
2022/11/12 07:34:21;;;;;;;4.55;3.70;;;;;;;22.32;46.29;96228.91;4996868;28;20042;-62
2022/11/12 07:36:50;;;;;;;4.80;3.90;;;;;;;22.44;46.10;96250.38;4990567;28;21282;-59
2022/11/12 07:39:15;;;;;;;4.07;3.50;;;;;;;22.45;46.37;96249.13;4997782;28;20312;-63
2022/11/12 07:41:41;;;;;;;4.80;3.70;;;;;;;22.37;46.47;96223.53;4996858;28;20530;-59
2022/11/12 07:44:06;;;;;;;4.75;3.95;;;;;;;22.61;46.33;96254.06;4995466;28;20054;-64
2022/11/12 07:46:32;;;;;;;4.78;3.78;;;;;;;22.31;46.27;96209.09;4992720;28;20069;-60
2022/11/12 07:48:57;;;;;;;8.77;4.40;;;;;;;22.61;47.43;96248.63;4994886;28;20457;-63
2022/11/12 07:51:24;;;;;;;5.60;3.67;;;;;;;22.54;47.55;96249.00;4993950;28;20045;-61
2022/11/12 07:53:50;;;;;;;6.10;3.90;;;;;;;22.65;48.13;96257.34;4993877;28;20578;-63
2022/11/12 07:56:17;;;;;;;5.22;3.70;;;;;;;22.31;47.83;96192.78;4991346;28;20101;-64
2022/11/12 07:58:43;;;;;;;7.20;4.20;;;;;;;22.78;48.13;96255.03;4986461;28;20045;-61
2022/11/12 08:01:31;;;;;;;5.13;3.75;;;;;;;22.81;47.74;96273.16;4993734;28;20046;-60
2022/11/12 08:03:57;;;;;;;6.40;4.00;;;;;;;22.89;47.54;96270.31;4995423;28;20124;-65
2022/11/12 08:06:23;;;;;;;5.10;3.97;;;;;;;22.95;47.68;96265.72;4995647;28;20037;-59
2022/11/12 08:08:55;;;;;;;7.82;4.20;;;;;;;23.01;47.90;96266.53;4993323;28;20061;-59
2022/11/12 08:11:20;;;;;;;7.60;4.40;;;;;;;22.98;48.61;96294.72;4995092;28;20092;-64
2022/11/12 08:13:46;;;;;;;8.95;3.92;;;;;;;23.06;48.60;96257.69;4997611;28;20049;-60
2022/11/12 08:16:11;;;;;;;6.90;4.10;;;;;;;23.23;48.50;96272.25;4993187;28;20450;-63
2022/11/12 08:18:37;;;;;;;6.25;4.03;;;;;;;23.27;47.42;96261.88;4995571;28;20040;-63
2022/11/12 08:21:04;;;;;;;7.70;4.43;;;;;;;23.35;47.11;96279.34;4981322;28;20076;-62
2022/11/12 08:23:30;;;;;;;8.15;4.07;;;;;;;23.37;46.81;96279.59;4995456;28;20069;-60
2022/11/12 08:25:59;;;;;;;7.07;4.22;;;;;;;23.33;47.48;96270.88;4989942;28;20613;-64
2022/11/12 08:28:24;;;;;;;6.93;4.00;;;;;;;23.19;46.42;96228.09;5011249;28;20068;-61
2022/11/12 08:30:50;;;;;;;5.13;3.60;;;;;;;23.55;46.28;96265.69;5015301;28;20494;-64
2022/11/12 08:33:15;;;;;;;5.85;4.32;;;;;;;23.34;45.83;96245.13;5013309;28;20061;-63
2022/11/12 08:35:41;;;;;;;5.15;3.80;;;;;;;22.60;46.23;96105.53;4990805;28;20046;-61
2022/11/12 08:38:10;;;;;;;7.53;3.90;;;;;;;23.57;46.44;96252.31;5007974;28;20197;-64
2022/11/12 08:40:35;;;;;;;5.70;3.67;;;;;;;23.71;45.87;96267.88;4993369;28;20476;-62
2022/11/12 08:43:08;;;;;;;4.47;3.63;;;;;;;23.85;45.46;96277.91;5011769;28;20099;-61
2022/11/12 08:45:35;;;;;;;5.88;3.50;;;;;;;22.03;45.32;95998.50;5010510;28;20036;-66
2022/11/12 08:48:08;;;;;;;6.28;3.90;;;;;;;23.89;45.94;96279.94;5009090;28;20424;-59
2022/11/12 08:50:34;;;;;;;4.00;3.33;;;;;;;24.01;45.13;96270.63;5012095;28;20103;-61
2022/11/12 08:53:01;;;;;;;6.10;3.55;;;;;;;23.82;44.96;96252.34;4992826;28;20090;-61
2022/11/12 08:55:27;;;;;;;5.47;3.92;;;;;;;24.09;44.70;96279.88;5009499;28;20082;-61
2022/11/12 08:57:52;;;;;;;6.15;3.85;;;;;;;23.95;44.82;96245.25;5013826;28;20041;-63
2022/11/12 09:00:18;;;;;;;5.43;3.50;;;;;;;24.29;44.20;96282.53;4975212;28;20493;-59
2022/11/12 09:02:43;;;;;;;5.55;3.60;;;;;;;24.37;44.42;96275.41;5011334;28;20132;-63
2022/11/12 09:05:08;;;;;;;5.07;3.67;;;;;;;24.19;44.39;96259.34;4993906;28;20045;-61
2022/11/12 09:07:34;;;;;;;5.65;3.58;;;;;;;23.18;40.55;96245.66;5000467;28;20045;-62
2022/11/12 09:10:00;;;;;;;5.43;3.78;;;;;;;22.83;43.81;96183.56;4989980;28;20124;-62
2022/11/12 09:12:26;;;;;;;4.70;3.65;;;;;;;23.90;43.13;96273.25;5013655;28;20219;-63
2022/11/12 09:14:51;;;;;;;5.18;3.30;;;;;;;22.84;43.62;96136.03;4997537;28;20028;-61
2022/11/12 09:17:16;;;;;;;5.15;3.58;;;;;;;24.19;43.27;96264.81;4997508;28;20041;-62
2022/11/12 09:19:42;;;;;;;6.03;3.70;;;;;;;23.85;43.67;96206.97;5012630;28;20056;-58
2022/11/12 09:22:07;;;;;;;5.20;3.60;;;;;;;24.37;43.51;96280.88;5013139;28;20049;-62
2022/11/12 09:24:33;;;;;;;4.60;3.35;;;;;;;24.43;43.41;96265.28;4995998;28;20621;-61
2022/11/12 09:26:58;;;;;;;4.20;3.50;;;;;;;23.66;43.03;96141.13;5015037;28;20048;-65
2022/11/12 09:29:24;;;;;;;6.43;3.63;;;;;;;24.56;42.98;96282.03;5013394;28;20307;-61
2022/11/12 09:31:49;;;;;;;4.50;2.97;;;;;;;24.45;43.06;96288.16;4999554;28;20057;-63
2022/11/12 09:34:15;;;;;;;6.35;3.53;;;;;;;24.58;42.64;96263.16;4995933;28;20045;-60
2022/11/12 09:36:40;;;;;;;4.75;3.42;;;;;;;24.46;43.28;96256.13;5013054;28;20052;-66
2022/11/12 09:39:06;;;;;;;6.10;3.75;;;;;;;24.52;43.31;96267.84;5018679;28;20586;-63
2022/11/12 09:41:31;;;;;;;5.60;3.38;;;;;;;22.64;42.82;96003.38;5017679;28;20502;-63
2022/11/12 09:44:00;;;;;;;5.47;3.28;;;;;;;24.55;42.72;96273.06;5006709;28;20506;-63
2022/11/12 09:46:39;;;;;;;4.53;3.25;;;;;;;23.63;43.01;96135.84;4981969;28;20056;-64
2022/11/12 09:49:10;;;;;;;4.97;3.30;;;;;;;24.58;43.26;96268.63;5014805;28;20049;-62
2022/11/12 09:51:42;;;;;;;5.68;3.38;;;;;;;24.37;43.53;96261.75;5009924;28;20037;-62
2022/11/12 09:54:20;;;;;;;5.45;3.42;;;;;;;24.37;43.19;96231.72;5010186;28;20038;-62
2022/11/12 09:56:48;;;;;;;5.15;3.22;;;;;;;24.44;43.20;96234.03;4993726;28;20037;-60
2022/11/12 09:59:13;;;;;;;5.60;3.40;;;;;;;24.65;42.98;96276.34;5010267;28;20037;-63
2022/11/12 10:02:17;;;;;;;5.07;3.15;;;;;;;24.55;43.40;96275.06;4999053;28;20120;-62
2022/11/12 10:05:15;;;;;;;5.28;3.13;;;;;;;24.23;45.04;96227.16;4987499;28;20053;-61
2022/11/12 10:08:01;;;;;;;5.28;3.33;;;;;;;24.58;45.65;96263.16;5003036;28;21856;-62
2022/11/12 10:10:35;;;;;;;5.30;3.30;;;;;;;24.50;45.69;96273.03;5002930;28;20587;-63
2022/11/12 10:13:23;;;;;;;5.30;3.47;;;;;;;24.27;45.80;96244.03;4999978;28;20041;-62
2022/11/12 10:18:54;;;;;;;5.25;3.20;;;;;;;23.73;44.77;96112.66;4999724;28;20100;-62
2022/11/12 10:21:19;;;;;;;4.65;3.58;;;;;;;23.62;44.56;96109.81;5013880;28;20037;-62
2022/11/12 10:23:45;;;;;;;5.20;3.20;;;;;;;24.06;43.98;96151.81;5011780;28;20094;-63
2022/11/12 10:26:15;;;;;;;4.63;3.35;;;;;;;24.74;43.95;96266.00;4993493;28;20514;-61
2022/11/12 10:29:12;;;;;;;5.35;3.45;;;;;;;24.78;44.27;96263.03;5017028;28;20060;-59
2022/11/12 10:31:37;;;;;;;5.35;3.28;;;;;;;23.64;44.11;96110.09;5014870;28;20041;-62
2022/11/12 10:34:15;;;;;;;3.20;2.50;;;;;;;24.28;39.36;96261.91;5011940;28;20065;-61
2022/11/12 10:37:00;;;;;;;5.63;3.13;;;;;;;24.50;43.65;96275.78;5007488;28;20033;-59
2022/11/12 10:39:43;;;;;;;6.25;3.42;;;;;;;24.78;42.96;96271.22;5009354;28;20550;-58
2022/11/12 10:42:10;;;;;;;4.65;3.10;;;;;;;23.38;42.25;96008.50;5004617;28;20025;-62
2022/11/12 10:44:36;;;;;;;4.63;3.03;;;;;;;25.00;43.24;96267.38;5015880;28;20151;-63
2022/11/12 10:47:37;;;;;;;4.18;2.95;;;;;;;25.04;42.76;96262.44;5015335;28;20045;-61
2022/11/12 10:50:20;;;;;;;4.22;2.88;;;;;;;24.86;42.82;96257.34;5012486;28;20136;-62
2022/11/12 10:53:12;;;;;;;6.22;3.20;;;;;;;24.78;44.50;96265.75;4986374;28;20354;-63
2022/11/12 10:55:57;;;;;;;8.13;4.60;;;;;;;24.59;45.94;96281.78;5004553;28;20056;-63
2022/11/12 10:58:23;;;;;;;8.00;4.93;;;;;;;24.73;46.00;96261.00;5014472;28;20038;-60
2022/11/12 11:00:52;;;;;;;41.70;33.88;;;;;;;24.84;46.54;96259.84;5017303;28;20490;-61
2022/11/12 11:03:21;;;;;;;11.40;8.48;;;;;;;24.82;46.03;96267.03;5018363;28;20064;-62
2022/11/12 11:06:16;;;;;;;12.93;9.95;;;;;;;24.82;46.42;96262.28;5016970;28;20041;-64
2022/11/12 11:08:49;;;;;;;15.30;11.52;;;;;;;25.01;45.35;96263.44;4996968;28;20493;-63
2022/11/12 11:11:20;;;;;;;15.90;11.82;;;;;;;25.21;46.29;96260.53;5015698;28;20156;-60
2022/11/12 11:13:47;;;;;;;14.95;10.52;;;;;;;24.91;45.83;96232.03;5000165;28;21363;-64
2022/11/12 11:16:20;;;;;;;13.68;9.57;;;;;;;25.09;44.86;96248.03;4999370;28;20049;-63
2022/11/12 11:18:57;;;;;;;15.10;9.30;;;;;;;25.18;44.80;96230.69;5000207;28;20122;-58
2022/11/12 11:21:44;;;;;;;11.48;8.95;;;;;;;25.03;44.92;96228.16;5018476;28;20114;-62
2022/11/12 11:24:16;;;;;;;13.23;9.30;;;;;;;23.46;44.94;95985.03;5015787;28;20158;-63
2022/11/12 11:26:48;;;;;;;12.60;7.82;;;;;;;25.04;45.42;96262.44;4983686;28;20057;-62
2022/11/12 11:29:36;;;;;;;12.27;8.07;;;;;;;25.30;44.29;96254.84;4993148;28;20077;-63
2022/11/12 11:32:25;;;;;;;10.73;7.65;;;;;;;25.21;44.27;96260.53;4967943;28;20038;-60
2022/11/12 11:35:44;;;;;;;9.35;7.22;;;;;;;25.02;44.46;96237.59;5011649;28;20473;-63
2022/11/12 11:38:40;;;;;;;10.95;6.70;;;;;;;25.21;44.04;96260.53;4911713;29;20397;-65
2022/11/12 11:41:29;;;;;;;9.90;6.10;;;;;;;25.31;43.41;96264.56;4997243;28;20623;-64
2022/11/12 11:44:09;;;;;;;10.68;6.10;;;;;;;25.20;44.75;96291.84;5016888;28;20521;-61
2022/11/12 11:46:40;;;;;;;8.52;5.93;;;;;;;25.00;45.08;96263.91;5004519;28;20040;-65
2022/11/12 11:49:44;;;;;;;8.30;5.50;;;;;;;24.99;44.54;96257.72;5012126;28;20096;-59
2022/11/12 11:52:28;;;;;;;8.10;5.43;;;;;;;25.15;44.57;96257.03;4991632;28;20057;-66
2022/11/12 11:54:59;;;;;;;8.45;5.32;;;;;;;25.24;43.88;96253.34;5008607;28;20045;-61
2022/11/12 11:57:27;;;;;;;8.43;5.63;;;;;;;25.11;43.86;96256.53;5001048;28;20044;-62
2022/11/12 11:59:53;;;;;;;7.22;5.10;;;;;;;25.08;44.16;96262.97;5014374;28;20127;-62
2022/11/12 12:02:27;;;;;;;7.30;5.10;;;;;;;24.97;43.99;96243.00;5011492;28;20049;-61
2022/11/12 12:05:18;;;;;;;8.55;5.13;;;;;;;25.08;44.22;96260.25;4993411;23;20493;-63